sensor_id;sensor_type;location;lat;lon;timestamp;P1;durP1;ratioP1;P2;durP2;ratioP2
25345;SDS011;13300;51.032;3.710;2022-10-16T00:01:14;0.90;;;0.85;;
25345;SDS011;13300;51.032;3.710;2022-10-16T00:03:42;2.35;;;0.95;;
25345;SDS011;13300;51.032;3.710;2022-10-16T00:06:09;2.00;;;1.17;;
25345;SDS011;13300;51.032;3.710;2022-10-16T00:08:35;2.03;;;1.25;;
25345;SDS011;13300;51.032;3.710;2022-10-16T00:11:06;2.53;;;1.42;;
25345;SDS011;13300;51.032;3.710;2022-10-16T00:13:34;2.40;;;1.30;;
25345;SDS011;13300;51.032;3.710;2022-10-16T00:16:01;2.08;;;1.20;;
25345;SDS011;13300;51.032;3.710;2022-10-16T00:18:28;2.38;;;1.42;;
25345;SDS011;13300;51.032;3.710;2022-10-16T00:20:54;3.50;;;1.40;;
25345;SDS011;13300;51.032;3.710;2022-10-16T00:23:26;3.90;;;1.40;;
25345;SDS011;13300;51.032;3.710;2022-10-16T00:25:55;1.88;;;1.58;;
25345;SDS011;13300;51.032;3.710;2022-10-16T00:28:22;2.10;;;1.58;;
25345;SDS011;13300;51.032;3.710;2022-10-16T00:30:47;3.92;;;1.35;;
25345;SDS011;13300;51.032;3.710;2022-10-16T00:33:13;2.78;;;1.92;;
25345;SDS011;13300;51.032;3.710;2022-10-16T00:35:39;3.35;;;2.08;;
25345;SDS011;13300;51.032;3.710;2022-10-16T00:38:04;1.73;;;1.27;;
25345;SDS011;13300;51.032;3.710;2022-10-16T00:40:30;1.92;;;1.60;;
25345;SDS011;13300;51.032;3.710;2022-10-16T00:42:56;1.77;;;1.50;;
25345;SDS011;13300;51.032;3.710;2022-10-16T00:45:22;3.28;;;1.50;;
25345;SDS011;13300;51.032;3.710;2022-10-16T00:47:48;1.48;;;1.30;;
25345;SDS011;13300;51.032;3.710;2022-10-16T00:52:58;1.52;;;1.35;;
25345;SDS011;13300;51.032;3.710;2022-10-16T00:55:25;1.60;;;1.02;;
25345;SDS011;13300;51.032;3.710;2022-10-16T00:57:52;1.65;;;1.55;;
25345;SDS011;13300;51.032;3.710;2022-10-16T01:00:21;3.30;;;1.50;;
25345;SDS011;13300;51.032;3.710;2022-10-16T01:02:55;1.95;;;1.20;;
25345;SDS011;13300;51.032;3.710;2022-10-16T01:05:42;3.80;;;1.60;;
25345;SDS011;13300;51.032;3.710;2022-10-16T01:08:19;1.77;;;1.20;;
25345;SDS011;13300;51.032;3.710;2022-10-16T01:11:06;2.30;;;1.27;;
25345;SDS011;13300;51.032;3.710;2022-10-16T01:13:44;3.45;;;1.25;;
25345;SDS011;13300;51.032;3.710;2022-10-16T01:16:31;3.83;;;1.42;;
25345;SDS011;13300;51.032;3.710;2022-10-16T01:21:40;4.18;;;1.08;;
25345;SDS011;13300;51.032;3.710;2022-10-16T01:24:17;2.70;;;1.33;;
25345;SDS011;13300;51.032;3.710;2022-10-16T01:29:52;1.80;;;1.00;;
25345;SDS011;13300;51.032;3.710;2022-10-16T01:32:45;2.35;;;1.38;;
25345;SDS011;13300;51.032;3.710;2022-10-16T01:35:14;2.67;;;1.40;;
25345;SDS011;13300;51.032;3.710;2022-10-16T01:40:27;1.90;;;1.20;;
25345;SDS011;13300;51.032;3.710;2022-10-16T01:42:56;1.42;;;1.10;;
25345;SDS011;13300;51.032;3.710;2022-10-16T01:45:27;1.77;;;1.15;;
25345;SDS011;13300;51.032;3.710;2022-10-16T01:47:55;2.97;;;1.30;;
25345;SDS011;13300;51.032;3.710;2022-10-16T01:50:21;3.38;;;1.10;;
25345;SDS011;13300;51.032;3.710;2022-10-16T01:52:49;4.03;;;1.38;;
25345;SDS011;13300;51.032;3.710;2022-10-16T01:55:19;2.70;;;1.38;;
25345;SDS011;13300;51.032;3.710;2022-10-16T01:57:52;2.28;;;1.17;;
25345;SDS011;13300;51.032;3.710;2022-10-16T02:00:19;2.35;;;1.20;;
25345;SDS011;13300;51.032;3.710;2022-10-16T02:02:47;3.10;;;1.60;;
25345;SDS011;13300;51.032;3.710;2022-10-16T02:05:20;2.22;;;1.33;;
25345;SDS011;13300;51.032;3.710;2022-10-16T02:07:47;1.98;;;1.30;;
25345;SDS011;13300;51.032;3.710;2022-10-16T02:10:14;2.05;;;1.50;;
25345;SDS011;13300;51.032;3.710;2022-10-16T02:12:41;2.75;;;1.48;;
25345;SDS011;13300;51.032;3.710;2022-10-16T02:15:10;3.35;;;1.58;;
25345;SDS011;13300;51.032;3.710;2022-10-16T02:17:36;1.90;;;1.35;;
25345;SDS011;13300;51.032;3.710;2022-10-16T02:20:02;3.03;;;1.50;;
25345;SDS011;13300;51.032;3.710;2022-10-16T02:22:34;2.90;;;1.42;;
25345;SDS011;13300;51.032;3.710;2022-10-16T02:25:08;4.22;;;1.80;;
25345;SDS011;13300;51.032;3.710;2022-10-16T02:27:41;2.55;;;1.48;;
25345;SDS011;13300;51.032;3.710;2022-10-16T02:30:19;5.85;;;1.42;;
25345;SDS011;13300;51.032;3.710;2022-10-16T02:32:52;2.03;;;1.50;;
25345;SDS011;13300;51.032;3.710;2022-10-16T02:35:20;3.30;;;1.80;;
25345;SDS011;13300;51.032;3.710;2022-10-16T02:37:48;4.10;;;1.80;;
25345;SDS011;13300;51.032;3.710;2022-10-16T02:40:15;2.03;;;1.30;;
25345;SDS011;13300;51.032;3.710;2022-10-16T02:42:41;3.25;;;1.40;;
25345;SDS011;13300;51.032;3.710;2022-10-16T02:45:08;3.88;;;1.70;;
25345;SDS011;13300;51.032;3.710;2022-10-16T02:47:35;5.03;;;1.77;;
25345;SDS011;13300;51.032;3.710;2022-10-16T02:50:00;2.63;;;1.48;;
25345;SDS011;13300;51.032;3.710;2022-10-16T02:52:26;1.90;;;1.63;;
25345;SDS011;13300;51.032;3.710;2022-10-16T02:54:52;4.72;;;1.60;;
25345;SDS011;13300;51.032;3.710;2022-10-16T02:57:18;6.13;;;2.00;;
25345;SDS011;13300;51.032;3.710;2022-10-16T02:59:43;2.90;;;1.73;;
25345;SDS011;13300;51.032;3.710;2022-10-16T03:02:09;5.00;;;1.70;;
25345;SDS011;13300;51.032;3.710;2022-10-16T03:04:35;2.92;;;1.83;;
25345;SDS011;13300;51.032;3.710;2022-10-16T03:07:01;4.50;;;1.75;;
25345;SDS011;13300;51.032;3.710;2022-10-16T03:09:27;3.83;;;1.58;;
25345;SDS011;13300;51.032;3.710;2022-10-16T03:11:52;3.05;;;1.63;;
25345;SDS011;13300;51.032;3.710;2022-10-16T03:14:18;3.70;;;1.80;;
25345;SDS011;13300;51.032;3.710;2022-10-16T03:16:44;4.32;;;1.90;;
25345;SDS011;13300;51.032;3.710;2022-10-16T03:19:09;5.00;;;1.70;;
25345;SDS011;13300;51.032;3.710;2022-10-16T03:21:35;2.47;;;1.52;;
25345;SDS011;13300;51.032;3.710;2022-10-16T03:24:01;6.97;;;1.75;;
25345;SDS011;13300;51.032;3.710;2022-10-16T03:26:27;4.72;;;1.90;;
25345;SDS011;13300;51.032;3.710;2022-10-16T03:28:52;3.35;;;1.80;;
25345;SDS011;13300;51.032;3.710;2022-10-16T03:31:18;5.00;;;1.73;;
25345;SDS011;13300;51.032;3.710;2022-10-16T03:33:43;5.00;;;1.80;;
25345;SDS011;13300;51.032;3.710;2022-10-16T03:36:09;3.17;;;1.70;;
25345;SDS011;13300;51.032;3.710;2022-10-16T03:38:35;2.38;;;1.55;;
25345;SDS011;13300;51.032;3.710;2022-10-16T03:41:00;3.08;;;1.70;;
25345;SDS011;13300;51.032;3.710;2022-10-16T03:43:26;4.38;;;1.83;;
25345;SDS011;13300;51.032;3.710;2022-10-16T03:45:52;2.10;;;1.80;;
25345;SDS011;13300;51.032;3.710;2022-10-16T03:48:18;2.72;;;1.70;;
25345;SDS011;13300;51.032;3.710;2022-10-16T03:50:44;6.35;;;2.10;;
25345;SDS011;13300;51.032;3.710;2022-10-16T03:53:11;4.45;;;1.95;;
25345;SDS011;13300;51.032;3.710;2022-10-16T03:55:37;5.07;;;1.92;;
25345;SDS011;13300;51.032;3.710;2022-10-16T03:58:02;5.18;;;1.80;;
25345;SDS011;13300;51.032;3.710;2022-10-16T04:00:28;4.05;;;1.58;;
25345;SDS011;13300;51.032;3.710;2022-10-16T04:02:53;3.35;;;1.90;;
25345;SDS011;13300;51.032;3.710;2022-10-16T04:05:19;6.40;;;2.10;;
25345;SDS011;13300;51.032;3.710;2022-10-16T04:07:45;4.88;;;2.10;;
25345;SDS011;13300;51.032;3.710;2022-10-16T04:10:10;7.55;;;2.42;;
25345;SDS011;13300;51.032;3.710;2022-10-16T04:12:36;4.55;;;2.47;;
25345;SDS011;13300;51.032;3.710;2022-10-16T04:15:01;5.97;;;1.98;;
25345;SDS011;13300;51.032;3.710;2022-10-16T04:17:27;4.15;;;1.98;;
25345;SDS011;13300;51.032;3.710;2022-10-16T04:19:53;3.08;;;1.88;;
25345;SDS011;13300;51.032;3.710;2022-10-16T04:22:18;4.75;;;2.13;;
25345;SDS011;13300;51.032;3.710;2022-10-16T04:24:44;2.53;;;1.90;;
25345;SDS011;13300;51.032;3.710;2022-10-16T04:27:10;4.00;;;2.03;;
25345;SDS011;13300;51.032;3.710;2022-10-16T04:29:35;7.63;;;2.35;;
25345;SDS011;13300;51.032;3.710;2022-10-16T04:32:01;4.75;;;2.33;;
25345;SDS011;13300;51.032;3.710;2022-10-16T04:34:27;4.85;;;2.15;;
25345;SDS011;13300;51.032;3.710;2022-10-16T04:36:52;6.25;;;2.30;;
25345;SDS011;13300;51.032;3.710;2022-10-16T04:39:18;3.08;;;1.77;;
25345;SDS011;13300;51.032;3.710;2022-10-16T04:41:43;7.28;;;2.78;;
25345;SDS011;13300;51.032;3.710;2022-10-16T04:44:09;4.80;;;2.08;;
25345;SDS011;13300;51.032;3.710;2022-10-16T04:46:35;3.08;;;2.20;;
25345;SDS011;13300;51.032;3.710;2022-10-16T04:49:00;7.20;;;2.30;;
25345;SDS011;13300;51.032;3.710;2022-10-16T04:51:26;5.97;;;2.10;;
25345;SDS011;13300;51.032;3.710;2022-10-16T04:53:52;2.40;;;1.90;;
25345;SDS011;13300;51.032;3.710;2022-10-16T04:56:19;5.90;;;2.38;;
25345;SDS011;13300;51.032;3.710;2022-10-16T04:58:46;4.57;;;2.15;;
25345;SDS011;13300;51.032;3.710;2022-10-16T05:01:12;3.83;;;2.30;;
25345;SDS011;13300;51.032;3.710;2022-10-16T05:03:38;5.55;;;2.08;;
25345;SDS011;13300;51.032;3.710;2022-10-16T05:06:05;8.40;;;2.30;;
25345;SDS011;13300;51.032;3.710;2022-10-16T05:08:31;7.10;;;2.42;;
25345;SDS011;13300;51.032;3.710;2022-10-16T05:10:56;5.90;;;2.58;;
25345;SDS011;13300;51.032;3.710;2022-10-16T05:13:22;4.72;;;2.33;;
25345;SDS011;13300;51.032;3.710;2022-10-16T05:15:48;3.35;;;2.25;;
25345;SDS011;13300;51.032;3.710;2022-10-16T05:18:14;4.03;;;2.10;;
25345;SDS011;13300;51.032;3.710;2022-10-16T05:20:41;5.22;;;2.03;;
25345;SDS011;13300;51.032;3.710;2022-10-16T05:23:07;4.47;;;2.38;;
25345;SDS011;13300;51.032;3.710;2022-10-16T05:25:35;5.57;;;2.20;;
25345;SDS011;13300;51.032;3.710;2022-10-16T05:28:01;5.28;;;2.30;;
25345;SDS011;13300;51.032;3.710;2022-10-16T05:30:27;3.10;;;2.13;;
25345;SDS011;13300;51.032;3.710;2022-10-16T05:32:53;4.35;;;2.13;;
25345;SDS011;13300;51.032;3.710;2022-10-16T05:35:18;6.90;;;1.98;;
25345;SDS011;13300;51.032;3.710;2022-10-16T05:37:45;4.78;;;1.90;;
25345;SDS011;13300;51.032;3.710;2022-10-16T05:40:11;4.05;;;1.98;;
25345;SDS011;13300;51.032;3.710;2022-10-16T05:42:38;3.13;;;1.83;;
25345;SDS011;13300;51.032;3.710;2022-10-16T05:45:08;7.63;;;2.00;;
25345;SDS011;13300;51.032;3.710;2022-10-16T05:47:35;3.05;;;1.95;;
25345;SDS011;13300;51.032;3.710;2022-10-16T05:50:01;5.85;;;2.30;;
25345;SDS011;13300;51.032;3.710;2022-10-16T05:52:29;7.43;;;2.35;;
25345;SDS011;13300;51.032;3.710;2022-10-16T05:54:54;3.63;;;1.88;;
25345;SDS011;13300;51.032;3.710;2022-10-16T05:57:20;4.00;;;2.10;;
25345;SDS011;13300;51.032;3.710;2022-10-16T05:59:46;4.45;;;1.90;;
25345;SDS011;13300;51.032;3.710;2022-10-16T06:02:12;4.38;;;1.92;;
25345;SDS011;13300;51.032;3.710;2022-10-16T06:04:39;4.15;;;2.00;;
25345;SDS011;13300;51.032;3.710;2022-10-16T06:07:04;3.28;;;1.85;;
25345;SDS011;13300;51.032;3.710;2022-10-16T06:09:30;7.68;;;1.90;;
25345;SDS011;13300;51.032;3.710;2022-10-16T06:11:56;4.60;;;1.90;;
25345;SDS011;13300;51.032;3.710;2022-10-16T06:14:21;6.25;;;2.13;;
25345;SDS011;13300;51.032;3.710;2022-10-16T06:16:47;5.22;;;2.35;;
25345;SDS011;13300;51.032;3.710;2022-10-16T06:19:12;5.72;;;2.10;;
25345;SDS011;13300;51.032;3.710;2022-10-16T06:21:38;6.50;;;2.15;;
25345;SDS011;13300;51.032;3.710;2022-10-16T06:24:04;5.10;;;2.00;;
25345;SDS011;13300;51.032;3.710;2022-10-16T06:26:30;5.60;;;1.92;;
25345;SDS011;13300;51.032;3.710;2022-10-16T06:28:56;3.20;;;1.95;;
25345;SDS011;13300;51.032;3.710;2022-10-16T06:31:23;5.43;;;1.92;;
25345;SDS011;13300;51.032;3.710;2022-10-16T06:33:52;5.25;;;2.22;;
25345;SDS011;13300;51.032;3.710;2022-10-16T06:36:18;7.55;;;2.17;;
25345;SDS011;13300;51.032;3.710;2022-10-16T06:38:45;6.22;;;2.08;;
25345;SDS011;13300;51.032;3.710;2022-10-16T06:41:15;6.13;;;2.13;;
25345;SDS011;13300;51.032;3.710;2022-10-16T06:43:43;5.63;;;2.13;;
25345;SDS011;13300;51.032;3.710;2022-10-16T06:46:13;5.00;;;1.90;;
25345;SDS011;13300;51.032;3.710;2022-10-16T06:48:41;5.03;;;1.95;;
25345;SDS011;13300;51.032;3.710;2022-10-16T06:51:09;4.57;;;1.75;;
25345;SDS011;13300;51.032;3.710;2022-10-16T06:53:45;4.38;;;2.17;;
25345;SDS011;13300;51.032;3.710;2022-10-16T06:56:21;4.85;;;1.70;;
25345;SDS011;13300;51.032;3.710;2022-10-16T06:58:49;3.45;;;1.60;;
25345;SDS011;13300;51.032;3.710;2022-10-16T07:01:16;3.85;;;1.50;;
25345;SDS011;13300;51.032;3.710;2022-10-16T07:03:43;4.35;;;1.77;;
25345;SDS011;13300;51.032;3.710;2022-10-16T07:06:11;4.32;;;1.80;;
25345;SDS011;13300;51.032;3.710;2022-10-16T07:08:43;2.63;;;1.52;;
25345;SDS011;13300;51.032;3.710;2022-10-16T07:11:11;7.00;;;1.60;;
25345;SDS011;13300;51.032;3.710;2022-10-16T07:13:40;3.93;;;1.33;;
25345;SDS011;13300;51.032;3.710;2022-10-16T07:16:17;4.05;;;1.55;;
25345;SDS011;13300;51.032;3.710;2022-10-16T07:18:44;3.13;;;1.60;;
25345;SDS011;13300;51.032;3.710;2022-10-16T07:21:15;5.22;;;1.77;;
25345;SDS011;13300;51.032;3.710;2022-10-16T07:23:42;7.38;;;2.20;;
25345;SDS011;13300;51.032;3.710;2022-10-16T07:26:09;4.25;;;1.58;;
25345;SDS011;13300;51.032;3.710;2022-10-16T07:28:35;5.65;;;1.70;;
25345;SDS011;13300;51.032;3.710;2022-10-16T07:31:05;5.53;;;1.58;;
25345;SDS011;13300;51.032;3.710;2022-10-16T07:33:33;3.25;;;1.70;;
25345;SDS011;13300;51.032;3.710;2022-10-16T07:36:00;4.63;;;1.83;;
25345;SDS011;13300;51.032;3.710;2022-10-16T07:38:25;3.17;;;1.35;;
25345;SDS011;13300;51.032;3.710;2022-10-16T07:41:01;5.15;;;1.63;;
25345;SDS011;13300;51.032;3.710;2022-10-16T07:43:29;4.82;;;1.60;;
25345;SDS011;13300;51.032;3.710;2022-10-16T07:45:55;5.03;;;1.63;;
25345;SDS011;13300;51.032;3.710;2022-10-16T07:48:21;5.70;;;1.55;;
25345;SDS011;13300;51.032;3.710;2022-10-16T07:50:48;5.38;;;1.52;;
25345;SDS011;13300;51.032;3.710;2022-10-16T07:53:14;4.18;;;1.83;;
25345;SDS011;13300;51.032;3.710;2022-10-16T07:55:40;6.80;;;1.67;;
25345;SDS011;13300;51.032;3.710;2022-10-16T07:58:06;4.72;;;2.10;;
25345;SDS011;13300;51.032;3.710;2022-10-16T08:00:32;5.20;;;1.67;;
25345;SDS011;13300;51.032;3.710;2022-10-16T08:02:58;5.60;;;1.65;;
25345;SDS011;13300;51.032;3.710;2022-10-16T08:05:27;5.28;;;1.58;;
25345;SDS011;13300;51.032;3.710;2022-10-16T08:07:54;4.65;;;2.60;;
25345;SDS011;13300;51.032;3.710;2022-10-16T08:10:21;3.05;;;1.27;;
25345;SDS011;13300;51.032;3.710;2022-10-16T08:12:48;7.20;;;1.65;;
25345;SDS011;13300;51.032;3.710;2022-10-16T08:15:14;3.85;;;1.42;;
25345;SDS011;13300;51.032;3.710;2022-10-16T08:17:39;6.03;;;1.40;;
25345;SDS011;13300;51.032;3.710;2022-10-16T08:20:05;3.95;;;1.40;;
25345;SDS011;13300;51.032;3.710;2022-10-16T08:22:31;3.83;;;1.40;;
25345;SDS011;13300;51.032;3.710;2022-10-16T08:24:57;3.80;;;1.90;;
25345;SDS011;13300;51.032;3.710;2022-10-16T08:27:23;4.50;;;1.42;;
25345;SDS011;13300;51.032;3.710;2022-10-16T08:29:48;7.78;;;2.10;;
25345;SDS011;13300;51.032;3.710;2022-10-16T08:32:14;5.40;;;1.85;;
25345;SDS011;13300;51.032;3.710;2022-10-16T08:34:40;5.30;;;1.40;;
25345;SDS011;13300;51.032;3.710;2022-10-16T08:37:06;5.32;;;1.75;;
25345;SDS011;13300;51.032;3.710;2022-10-16T08:39:36;5.18;;;1.40;;
25345;SDS011;13300;51.032;3.710;2022-10-16T08:50:40;5.38;;;1.63;;
25345;SDS011;13300;51.032;3.710;2022-10-16T08:53:06;5.72;;;2.05;;
25345;SDS011;13300;51.032;3.710;2022-10-16T08:55:51;8.52;;;1.50;;
25345;SDS011;13300;51.032;3.710;2022-10-16T08:58:18;9.57;;;1.80;;
25345;SDS011;13300;51.032;3.710;2022-10-16T09:00:47;6.43;;;1.73;;
25345;SDS011;13300;51.032;3.710;2022-10-16T09:12:17;13.25;;;2.20;;
25345;SDS011;13300;51.032;3.710;2022-10-16T09:20:07;5.78;;;1.73;;
25345;SDS011;13300;51.032;3.710;2022-10-16T09:23:01;5.97;;;1.50;;
25345;SDS011;13300;51.032;3.710;2022-10-16T09:25:38;6.60;;;1.67;;
25345;SDS011;13300;51.032;3.710;2022-10-16T09:28:07;4.78;;;1.63;;
25345;SDS011;13300;51.032;3.710;2022-10-16T09:30:34;6.72;;;1.77;;
25345;SDS011;13300;51.032;3.710;2022-10-16T09:32:59;4.95;;;1.60;;
25345;SDS011;13300;51.032;3.710;2022-10-16T09:38:01;6.15;;;1.65;;
25345;SDS011;13300;51.032;3.710;2022-10-16T09:40:28;4.47;;;1.40;;
25345;SDS011;13300;51.032;3.710;2022-10-16T09:43:11;7.57;;;1.55;;
25345;SDS011;13300;51.032;3.710;2022-10-16T09:45:43;4.88;;;1.67;;
25345;SDS011;13300;51.032;3.710;2022-10-16T09:48:17;8.10;;;1.73;;
25345;SDS011;13300;51.032;3.710;2022-10-16T09:50:55;6.60;;;1.88;;
25345;SDS011;13300;51.032;3.710;2022-10-16T09:53:26;5.63;;;1.50;;
25345;SDS011;13300;51.032;3.710;2022-10-16T09:56:09;6.80;;;1.70;;
25345;SDS011;13300;51.032;3.710;2022-10-16T09:58:41;8.02;;;1.80;;
25345;SDS011;13300;51.032;3.710;2022-10-16T10:01:13;6.22;;;1.60;;
25345;SDS011;13300;51.032;3.710;2022-10-16T10:03:41;8.98;;;1.88;;
25345;SDS011;13300;51.032;3.710;2022-10-16T10:06:24;6.10;;;1.65;;
25345;SDS011;13300;51.032;3.710;2022-10-16T10:08:52;9.45;;;2.10;;
25345;SDS011;13300;51.032;3.710;2022-10-16T10:11:40;6.93;;;1.90;;
25345;SDS011;13300;51.032;3.710;2022-10-16T10:14:21;8.95;;;1.77;;
25345;SDS011;13300;51.032;3.710;2022-10-16T10:19:37;7.05;;;1.75;;
25345;SDS011;13300;51.032;3.710;2022-10-16T10:24:57;9.80;;;2.70;;
25345;SDS011;13300;51.032;3.710;2022-10-16T10:30:44;4.50;;;2.10;;
25345;SDS011;13300;51.032;3.710;2022-10-16T10:38:51;6.05;;;1.75;;
25345;SDS011;13300;51.032;3.710;2022-10-16T10:55:13;9.77;;;2.22;;
25345;SDS011;13300;51.032;3.710;2022-10-16T10:57:45;7.40;;;1.88;;
25345;SDS011;13300;51.032;3.710;2022-10-16T11:05:52;5.15;;;1.77;;
25345;SDS011;13300;51.032;3.710;2022-10-16T11:16:32;6.75;;;1.83;;
25345;SDS011;13300;51.032;3.710;2022-10-16T11:24:45;6.93;;;1.90;;
25345;SDS011;13300;51.032;3.710;2022-10-16T11:27:50;6.65;;;1.65;;
25345;SDS011;13300;51.032;3.710;2022-10-16T11:30:43;6.38;;;1.67;;
25345;SDS011;13300;51.032;3.710;2022-10-16T11:35:46;7.80;;;1.70;;
25345;SDS011;13300;51.032;3.710;2022-10-16T11:38:39;7.53;;;1.60;;
25345;SDS011;13300;51.032;3.710;2022-10-16T11:46:35;6.32;;;1.63;;
25345;SDS011;13300;51.032;3.710;2022-10-16T11:49:07;9.45;;;1.95;;
25345;SDS011;13300;51.032;3.710;2022-10-16T11:54:21;7.57;;;1.58;;
25345;SDS011;13300;51.032;3.710;2022-10-16T11:57:17;6.43;;;1.50;;
25345;SDS011;13300;51.032;3.710;2022-10-16T11:59:58;8.00;;;1.80;;
25345;SDS011;13300;51.032;3.710;2022-10-16T12:05:22;6.75;;;1.60;;
25345;SDS011;13300;51.032;3.710;2022-10-16T12:10:42;6.93;;;1.75;;
25345;SDS011;13300;51.032;3.710;2022-10-16T12:14:03;6.03;;;1.70;;
25345;SDS011;13300;51.032;3.710;2022-10-16T12:18:45;4.80;;;1.50;;
25345;SDS011;13300;51.032;3.710;2022-10-16T12:21:13;6.90;;;1.52;;
25345;SDS011;13300;51.032;3.710;2022-10-16T12:23:51;6.38;;;1.63;;
25345;SDS011;13300;51.032;3.710;2022-10-16T12:26:28;5.82;;;1.80;;
25345;SDS011;13300;51.032;3.710;2022-10-16T12:31:55;4.68;;;1.45;;
25345;SDS011;13300;51.032;3.710;2022-10-16T12:37:14;3.95;;;1.33;;
25345;SDS011;13300;51.032;3.710;2022-10-16T12:39:51;5.25;;;1.85;;
25345;SDS011;13300;51.032;3.710;2022-10-16T12:42:37;6.13;;;1.35;;
25345;SDS011;13300;51.032;3.710;2022-10-16T12:45:13;4.78;;;1.48;;
25345;SDS011;13300;51.032;3.710;2022-10-16T12:47:59;6.25;;;1.35;;
25345;SDS011;13300;51.032;3.710;2022-10-16T12:50:31;4.60;;;1.33;;
25345;SDS011;13300;51.032;3.710;2022-10-16T12:52:59;3.50;;;1.13;;
25345;SDS011;13300;51.032;3.710;2022-10-16T12:55:27;5.25;;;1.30;;
25345;SDS011;13300;51.032;3.710;2022-10-16T13:00:45;2.90;;;1.05;;
25345;SDS011;13300;51.032;3.710;2022-10-16T13:09:05;4.63;;;1.30;;
25345;SDS011;13300;51.032;3.710;2022-10-16T13:28:05;4.93;;;1.55;;
25345;SDS011;13300;51.032;3.710;2022-10-16T13:30:42;6.20;;;1.33;;
25345;SDS011;13300;51.032;3.710;2022-10-16T13:35:50;5.05;;;1.20;;
25345;SDS011;13300;51.032;3.710;2022-10-16T13:38:18;5.70;;;1.20;;
25345;SDS011;13300;51.032;3.710;2022-10-16T13:40:53;5.05;;;1.27;;
25345;SDS011;13300;51.032;3.710;2022-10-16T13:46:02;3.72;;;0.95;;
25345;SDS011;13300;51.032;3.710;2022-10-16T13:48:30;3.43;;;1.10;;
25345;SDS011;13300;51.032;3.710;2022-10-16T13:51:11;5.40;;;1.50;;
25345;SDS011;13300;51.032;3.710;2022-10-16T13:53:42;4.13;;;1.30;;
25345;SDS011;13300;51.032;3.710;2022-10-16T13:56:12;3.30;;;1.17;;
25345;SDS011;13300;51.032;3.710;2022-10-16T13:58:42;3.20;;;1.25;;
25345;SDS011;13300;51.032;3.710;2022-10-16T14:03:44;4.60;;;1.20;;
25345;SDS011;13300;51.032;3.710;2022-10-16T14:06:12;2.60;;;1.17;;
25345;SDS011;13300;51.032;3.710;2022-10-16T14:09:00;3.90;;;1.25;;
25345;SDS011;13300;51.032;3.710;2022-10-16T14:11:31;2.67;;;1.10;;
25345;SDS011;13300;51.032;3.710;2022-10-16T14:13:59;3.58;;;1.40;;
25345;SDS011;13300;51.032;3.710;2022-10-16T14:16:26;3.65;;;1.10;;
25345;SDS011;13300;51.032;3.710;2022-10-16T14:18:57;3.45;;;1.30;;
25345;SDS011;13300;51.032;3.710;2022-10-16T14:21:25;3.72;;;1.20;;
25345;SDS011;13300;51.032;3.710;2022-10-16T14:23:52;5.70;;;1.33;;
25345;SDS011;13300;51.032;3.710;2022-10-16T14:26:20;3.15;;;1.10;;
25345;SDS011;13300;51.032;3.710;2022-10-16T14:29:02;2.65;;;1.10;;
25345;SDS011;13300;51.032;3.710;2022-10-16T14:31:34;4.10;;;1.40;;
25345;SDS011;13300;51.032;3.710;2022-10-16T14:34:02;4.10;;;1.35;;
25345;SDS011;13300;51.032;3.710;2022-10-16T14:36:28;3.33;;;1.10;;
25345;SDS011;13300;51.032;3.710;2022-10-16T14:38:57;4.07;;;1.00;;
25345;SDS011;13300;51.032;3.710;2022-10-16T14:41:32;1.48;;;0.80;;
25345;SDS011;13300;51.032;3.710;2022-10-16T14:44:11;1.80;;;0.70;;
25345;SDS011;13300;51.032;3.710;2022-10-16T14:46:39;3.03;;;0.75;;
25345;SDS011;13300;51.032;3.710;2022-10-16T14:51:36;1.45;;;0.80;;
25345;SDS011;13300;51.032;3.710;2022-10-16T14:54:02;2.08;;;0.55;;
25345;SDS011;13300;51.032;3.710;2022-10-16T14:56:29;2.17;;;0.70;;
25345;SDS011;13300;51.032;3.710;2022-10-16T14:58:58;1.42;;;0.60;;
25345;SDS011;13300;51.032;3.710;2022-10-16T15:01:25;3.97;;;0.90;;
25345;SDS011;13300;51.032;3.710;2022-10-16T15:03:51;2.58;;;0.98;;
25345;SDS011;13300;51.032;3.710;2022-10-16T15:06:19;4.57;;;0.85;;
25345;SDS011;13300;51.032;3.710;2022-10-16T15:08:45;3.58;;;0.63;;
25345;SDS011;13300;51.032;3.710;2022-10-16T15:11:15;4.70;;;1.42;;
25345;SDS011;13300;51.032;3.710;2022-10-16T15:13:42;3.90;;;1.63;;
25345;SDS011;13300;51.032;3.710;2022-10-16T15:16:13;2.40;;;1.80;;
25345;SDS011;13300;51.032;3.710;2022-10-16T15:18:40;4.20;;;2.13;;
25345;SDS011;13300;51.032;3.710;2022-10-16T15:21:06;3.42;;;1.45;;
25345;SDS011;13300;51.032;3.710;2022-10-16T15:23:32;4.45;;;1.08;;
25345;SDS011;13300;51.032;3.710;2022-10-16T15:25:58;1.73;;;1.17;;
25345;SDS011;13300;51.032;3.710;2022-10-16T15:28:24;4.43;;;1.08;;
25345;SDS011;13300;51.032;3.710;2022-10-16T15:30:55;2.58;;;1.00;;
25345;SDS011;13300;51.032;3.710;2022-10-16T15:33:22;2.83;;;1.10;;
25345;SDS011;13300;51.032;3.710;2022-10-16T15:35:52;1.25;;;0.88;;
25345;SDS011;13300;51.032;3.710;2022-10-16T15:38:19;1.50;;;1.05;;
25345;SDS011;13300;51.032;3.710;2022-10-16T15:40:46;7.03;;;1.55;;
25345;SDS011;13300;51.032;3.710;2022-10-16T15:43:13;2.40;;;1.10;;
25345;SDS011;13300;51.032;3.710;2022-10-16T15:45:40;3.35;;;1.35;;
25345;SDS011;13300;51.032;3.710;2022-10-16T15:48:06;3.97;;;1.20;;
25345;SDS011;13300;51.032;3.710;2022-10-16T15:50:35;5.53;;;1.35;;
25345;SDS011;13300;51.032;3.710;2022-10-16T15:53:03;5.85;;;1.30;;
25345;SDS011;13300;51.032;3.710;2022-10-16T15:55:29;2.70;;;1.25;;
25345;SDS011;13300;51.032;3.710;2022-10-16T15:57:54;2.60;;;0.95;;
25345;SDS011;13300;51.032;3.710;2022-10-16T16:00:21;3.53;;;1.23;;
25345;SDS011;13300;51.032;3.710;2022-10-16T16:02:49;5.72;;;1.92;;
25345;SDS011;13300;51.032;3.710;2022-10-16T16:05:17;5.60;;;1.33;;
25345;SDS011;13300;51.032;3.710;2022-10-16T16:07:44;3.60;;;1.25;;
25345;SDS011;13300;51.032;3.710;2022-10-16T16:10:10;4.47;;;1.42;;
25345;SDS011;13300;51.032;3.710;2022-10-16T16:12:37;3.90;;;2.22;;
25345;SDS011;13300;51.032;3.710;2022-10-16T16:15:04;3.60;;;2.00;;
25345;SDS011;13300;51.032;3.710;2022-10-16T16:17:31;5.15;;;2.80;;
25345;SDS011;13300;51.032;3.710;2022-10-16T16:19:58;8.55;;;3.20;;
25345;SDS011;13300;51.032;3.710;2022-10-16T16:22:24;6.63;;;2.83;;
25345;SDS011;13300;51.032;3.710;2022-10-16T16:24:49;4.20;;;2.35;;
25345;SDS011;13300;51.032;3.710;2022-10-16T16:27:15;5.70;;;2.20;;
25345;SDS011;13300;51.032;3.710;2022-10-16T16:29:43;4.30;;;2.83;;
25345;SDS011;13300;51.032;3.710;2022-10-16T16:32:09;7.55;;;3.38;;
25345;SDS011;13300;51.032;3.710;2022-10-16T16:34:35;7.18;;;2.83;;
25345;SDS011;13300;51.032;3.710;2022-10-16T16:37:02;4.90;;;2.30;;
25345;SDS011;13300;51.032;3.710;2022-10-16T16:39:27;8.35;;;2.58;;
25345;SDS011;13300;51.032;3.710;2022-10-16T16:41:54;4.40;;;2.58;;
25345;SDS011;13300;51.032;3.710;2022-10-16T16:44:21;5.95;;;2.30;;
25345;SDS011;13300;51.032;3.710;2022-10-16T16:46:47;11.23;;;2.97;;
25345;SDS011;13300;51.032;3.710;2022-10-16T16:49:13;9.10;;;3.30;;
25345;SDS011;13300;51.032;3.710;2022-10-16T16:51:40;6.93;;;3.10;;
25345;SDS011;13300;51.032;3.710;2022-10-16T16:54:06;6.25;;;3.20;;
25345;SDS011;13300;51.032;3.710;2022-10-16T16:56:33;8.80;;;3.45;;
25345;SDS011;13300;51.032;3.710;2022-10-16T16:58:59;7.20;;;3.75;;
25345;SDS011;13300;51.032;3.710;2022-10-16T17:01:32;10.07;;;5.88;;
25345;SDS011;13300;51.032;3.710;2022-10-16T17:03:58;11.07;;;4.07;;
25345;SDS011;13300;51.032;3.710;2022-10-16T17:06:26;8.23;;;3.47;;
25345;SDS011;13300;51.032;3.710;2022-10-16T17:08:57;9.63;;;4.50;;
25345;SDS011;13300;51.032;3.710;2022-10-16T17:11:25;6.82;;;3.42;;
25345;SDS011;13300;51.032;3.710;2022-10-16T17:14:01;7.57;;;3.53;;
25345;SDS011;13300;51.032;3.710;2022-10-16T17:16:31;10.20;;;4.18;;
25345;SDS011;13300;51.032;3.710;2022-10-16T17:19:00;8.68;;;3.00;;
25345;SDS011;13300;51.032;3.710;2022-10-16T17:21:30;6.68;;;2.65;;
25345;SDS011;13300;51.032;3.710;2022-10-16T17:23:59;7.63;;;2.80;;